VLG942P LEBL-LIRF
Flight info
| Callsign | VLG942P |
|---|---|
| Flight time | 1h 13m |
| Altitude | 39000 |
| Route | DIPES N725 OSPOK DCT NOLVI DCT ORKUM DCT ELSAG DCT ALG DCT ROMPO DCT RUXOP DCT BATOX DCT TINTO L5 VALMA |
| Aircraft | A20N/M-SDE2E3FGHIRWXY/LB1 |
Departure
| Time | 2026-05-07 20:03 |
|---|---|
| Airport | Josep Tarradellas Barcelona-El Prat Airport (LEBL) |
Arrival
| Time | 2026-05-07 21:16 |
|---|---|
| Airport | Rome–Fiumicino Leonardo da Vinci International Airport (LIRF) |
| Time | Latitude | Longitude | Altitude | Speed | Heading |
|---|---|---|---|---|---|
| 2026-05-07 19:27 | 41.30029 | 2.07296 | 23 ft | 0 kts | 346° |
| 2026-05-07 19:45 | 41.30017 | 2.07300 | 25 ft | 4 kts | 346° |
| 2026-05-07 19:45 | 41.29990 | 2.07309 | 24 ft | 4 kts | 345° |
| 2026-05-07 19:45 | 41.29965 | 2.07319 | 23 ft | 4 kts | 339° |
| 2026-05-07 19:45 | 41.29941 | 2.07334 | 22 ft | 4 kts | 330° |
| 2026-05-07 19:46 | 41.29931 | 2.07342 | 23 ft | 1 kts | 330° |
| 2026-05-07 19:46 | 41.29928 | 2.07344 | 22 ft | 0 kts | 330° |
| 2026-05-07 19:52 | 41.29929 | 2.07342 | 21 ft | 1 kts | 316° |
| 2026-05-07 19:53 | 41.29924 | 2.07331 | 23 ft | 2 kts | 232° |
| 2026-05-07 19:53 | 41.29906 | 2.07296 | 20 ft | 7 kts | 239° |
| 2026-05-07 19:53 | 41.29883 | 2.07232 | 20 ft | 8 kts | 242° |
| 2026-05-07 19:53 | 41.29846 | 2.07176 | 20 ft | 8 kts | 196° |
| 2026-05-07 19:54 | 41.29788 | 2.07198 | 18 ft | 10 kts | 155° |
| 2026-05-07 19:54 | 41.29736 | 2.07193 | 21 ft | 7 kts | 217° |
| 2026-05-07 19:54 | 41.29714 | 2.07146 | 19 ft | 6 kts | 249° |
| 2026-05-07 19:54 | 41.29697 | 2.07095 | 19 ft | 7 kts | 246° |
| 2026-05-07 19:55 | 41.29666 | 2.07058 | 19 ft | 6 kts | 197° |
| 2026-05-07 19:55 | 41.29622 | 2.07073 | 19 ft | 7 kts | 148° |
| 2026-05-07 19:55 | 41.29582 | 2.07097 | 18 ft | 6 kts | 156° |
| 2026-05-07 19:55 | 41.29571 | 2.07104 | 18 ft | 0 kts | 154° |
| 2026-05-07 19:57 | 41.29549 | 2.07118 | 20 ft | 10 kts | 154° |
| 2026-05-07 19:58 | 41.29492 | 2.07176 | 19 ft | 9 kts | 110° |
| 2026-05-07 19:58 | 41.29502 | 2.07247 | 21 ft | 0 kts | 65° |
| 2026-05-07 20:02 | 41.29542 | 2.07364 | 22 ft | 43 kts | 66° |
| 2026-05-07 20:03 | 41.29761 | 2.08001 | 22 ft | 108 kts | 65° |
| 2026-05-07 20:03 | 41.30156 | 2.09148 | 34 ft | 160 kts | 65° |
| 2026-05-07 20:03 | 41.30617 | 2.10485 | 616 ft | 155 kts | 65° |
| 2026-05-07 20:03 | 41.31058 | 2.11780 | 1313 ft | 153 kts | 66° |
| 2026-05-07 20:04 | 41.31489 | 2.13077 | 1972 ft | 155 kts | 67° |
| 2026-05-07 20:04 | 41.31931 | 2.14442 | 2723 ft | 165 kts | 66° |
| 2026-05-07 20:04 | 41.32446 | 2.15842 | 3483 ft | 173 kts | 64° |
| 2026-05-07 20:04 | 41.32833 | 2.17369 | 4256 ft | 174 kts | 83° |
| 2026-05-07 20:05 | 41.32842 | 2.19017 | 4934 ft | 183 kts | 92° |
| 2026-05-07 20:05 | 41.32852 | 2.20711 | 5577 ft | 190 kts | 88° |
| 2026-05-07 20:05 | 41.32883 | 2.22574 | 5969 ft | 215 kts | 91° |
| 2026-05-07 20:05 | 41.32797 | 2.24607 | 6485 ft | 232 kts | 94° |
| 2026-05-07 20:06 | 41.32646 | 2.26852 | 6900 ft | 255 kts | 95° |
| 2026-05-07 20:06 | 41.32486 | 2.29264 | 7519 ft | 267 kts | 97° |
| 2026-05-07 20:06 | 41.32128 | 2.31723 | 8337 ft | 274 kts | 102° |
| 2026-05-07 20:06 | 41.31703 | 2.34220 | 9193 ft | 279 kts | 103° |
| 2026-05-07 20:07 | 41.31232 | 2.36747 | 10027 ft | 284 kts | 104° |
| 2026-05-07 20:07 | 41.30719 | 2.39356 | 10568 ft | 300 kts | 104° |
| 2026-05-07 20:07 | 41.30161 | 2.42128 | 10901 ft | 322 kts | 105° |
| 2026-05-07 20:07 | 41.29566 | 2.45060 | 11261 ft | 341 kts | 105° |
| 2026-05-07 20:08 | 41.28939 | 2.48156 | 11867 ft | 351 kts | 105° |
| 2026-05-07 20:08 | 41.28301 | 2.51313 | 12593 ft | 357 kts | 104° |
| 2026-05-07 20:08 | 41.27652 | 2.54529 | 13361 ft | 363 kts | 104° |
| 2026-05-07 20:08 | 41.26994 | 2.57798 | 14099 ft | 368 kts | 104° |
| 2026-05-07 20:09 | 41.26328 | 2.61106 | 14774 ft | 373 kts | 105° |
| 2026-05-07 20:09 | 41.25652 | 2.64460 | 15446 ft | 378 kts | 105° |
| 2026-05-07 20:09 | 41.24976 | 2.67809 | 16131 ft | 383 kts | 105° |
| 2026-05-07 20:10 | 41.23583 | 2.74694 | 17532 ft | 390 kts | 106° |
| 2026-05-07 20:10 | 41.22871 | 2.78197 | 18190 ft | 395 kts | 107° |
| 2026-05-07 20:10 | 41.22153 | 2.81727 | 18763 ft | 399 kts | 107° |
| 2026-05-07 20:10 | 41.21426 | 2.85294 | 19353 ft | 402 kts | 107° |
| 2026-05-07 20:11 | 41.20690 | 2.88904 | 19938 ft | 405 kts | 107° |
| 2026-05-07 20:11 | 41.19951 | 2.92519 | 20525 ft | 407 kts | 107° |
| 2026-05-07 20:11 | 41.19214 | 2.96115 | 21100 ft | 410 kts | 107° |
| 2026-05-07 20:11 | 41.18460 | 2.99790 | 21663 ft | 413 kts | 107° |
| 2026-05-07 20:12 | 41.17703 | 3.03476 | 22235 ft | 416 kts | 107° |
| 2026-05-07 20:12 | 41.16940 | 3.07185 | 22792 ft | 419 kts | 107° |
| 2026-05-07 20:12 | 41.16172 | 3.10906 | 23322 ft | 422 kts | 107° |
| 2026-05-07 20:12 | 41.15388 | 3.14701 | 23790 ft | 425 kts | 107° |
| 2026-05-07 20:13 | 41.14605 | 3.18487 | 24226 ft | 428 kts | 108° |
| 2026-05-07 20:13 | 41.13818 | 3.22279 | 24657 ft | 430 kts | 108° |
| 2026-05-07 20:13 | 41.13023 | 3.26110 | 25081 ft | 432 kts | 108° |
| 2026-05-07 20:13 | 41.12215 | 3.29991 | 25492 ft | 435 kts | 108° |
| 2026-05-07 20:14 | 41.11414 | 3.33834 | 25896 ft | 437 kts | 108° |
| 2026-05-07 20:14 | 41.10605 | 3.37707 | 26290 ft | 439 kts | 108° |
| 2026-05-07 20:14 | 41.09786 | 3.41618 | 26667 ft | 442 kts | 108° |
| 2026-05-07 20:14 | 41.08962 | 3.45548 | 27027 ft | 445 kts | 108° |
| 2026-05-07 20:15 | 41.08128 | 3.49521 | 27387 ft | 447 kts | 109° |
| 2026-05-07 20:15 | 41.07297 | 3.53469 | 27718 ft | 450 kts | 109° |
| 2026-05-07 20:15 | 41.06449 | 3.57487 | 28052 ft | 453 kts | 109° |
| 2026-05-07 20:15 | 41.05594 | 3.61534 | 28369 ft | 456 kts | 109° |
| 2026-05-07 20:16 | 41.04743 | 3.65557 | 28677 ft | 459 kts | 109° |
| 2026-05-07 20:16 | 41.03871 | 3.69668 | 28974 ft | 462 kts | 109° |
| 2026-05-07 20:16 | 41.03005 | 3.73744 | 29266 ft | 465 kts | 109° |
| 2026-05-07 20:16 | 41.02131 | 3.77851 | 29660 ft | 465 kts | 109° |
| 2026-05-07 20:17 | 41.01275 | 3.81978 | 30066 ft | 466 kts | 108° |
| 2026-05-07 20:17 | 41.00481 | 3.86144 | 30406 ft | 467 kts | 108° |
| 2026-05-07 20:17 | 40.99724 | 3.90325 | 30744 ft | 467 kts | 107° |
| 2026-05-07 20:17 | 40.98982 | 3.94509 | 31092 ft | 467 kts | 107° |
| 2026-05-07 20:18 | 40.98243 | 3.98683 | 31441 ft | 466 kts | 108° |
| 2026-05-07 20:18 | 40.97498 | 4.02856 | 31798 ft | 465 kts | 108° |
| 2026-05-07 20:18 | 40.96749 | 4.07014 | 32156 ft | 464 kts | 108° |
| 2026-05-07 20:18 | 40.96001 | 4.11134 | 32517 ft | 463 kts | 108° |
| 2026-05-07 20:19 | 40.95248 | 4.15253 | 32876 ft | 461 kts | 108° |
| 2026-05-07 20:19 | 40.94492 | 4.19369 | 33246 ft | 459 kts | 108° |
| 2026-05-07 20:19 | 40.93745 | 4.23424 | 33605 ft | 458 kts | 109° |
| 2026-05-07 20:19 | 40.92993 | 4.27500 | 33931 ft | 456 kts | 109° |
| 2026-05-07 20:20 | 40.92236 | 4.31586 | 34188 ft | 456 kts | 109° |
| 2026-05-07 20:20 | 40.91481 | 4.35654 | 34361 ft | 458 kts | 109° |
| 2026-05-07 20:20 | 40.90718 | 4.39754 | 34526 ft | 459 kts | 109° |
| 2026-05-07 20:20 | 40.89953 | 4.43859 | 34699 ft | 460 kts | 109° |
| 2026-05-07 20:21 | 40.89185 | 4.47977 | 34878 ft | 462 kts | 109° |
| 2026-05-07 20:21 | 40.88428 | 4.52037 | 35053 ft | 463 kts | 109° |
| 2026-05-07 20:21 | 40.87657 | 4.56173 | 35218 ft | 464 kts | 109° |
| 2026-05-07 20:21 | 40.86884 | 4.60312 | 35395 ft | 465 kts | 109° |
| 2026-05-07 20:22 | 40.86115 | 4.64455 | 35548 ft | 467 kts | 107° |
| 2026-05-07 20:22 | 40.85559 | 4.68720 | 35704 ft | 471 kts | 103° |
| 2026-05-07 20:22 | 40.85103 | 4.73004 | 35862 ft | 472 kts | 102° |
| 2026-05-07 20:22 | 40.84685 | 4.77304 | 36029 ft | 474 kts | 102° |
| 2026-05-07 20:23 | 40.84284 | 4.81640 | 36185 ft | 475 kts | 101° |
| 2026-05-07 20:23 | 40.83895 | 4.85913 | 36351 ft | 476 kts | 101° |
| 2026-05-07 20:23 | 40.83501 | 4.90242 | 36490 ft | 476 kts | 101° |
| 2026-05-07 20:23 | 40.83103 | 4.94582 | 36654 ft | 477 kts | 101° |
| 2026-05-07 20:24 | 40.82699 | 4.98930 | 36809 ft | 478 kts | 102° |
| 2026-05-07 20:24 | 40.82289 | 5.03302 | 36956 ft | 478 kts | 102° |
| 2026-05-07 20:24 | 40.81877 | 5.07658 | 37112 ft | 479 kts | 102° |
| 2026-05-07 20:24 | 40.81462 | 5.12015 | 37258 ft | 479 kts | 102° |
| 2026-05-07 20:25 | 40.81043 | 5.16395 | 37410 ft | 480 kts | 102° |
| 2026-05-07 20:25 | 40.80623 | 5.20761 | 37556 ft | 480 kts | 102° |
| 2026-05-07 20:25 | 40.80206 | 5.25084 | 37693 ft | 481 kts | 102° |
| 2026-05-07 20:25 | 40.79782 | 5.29464 | 37835 ft | 481 kts | 102° |
| 2026-05-07 20:26 | 40.79356 | 5.33846 | 37970 ft | 482 kts | 102° |
| 2026-05-07 20:26 | 40.78928 | 5.38237 | 38099 ft | 482 kts | 102° |
| 2026-05-07 20:26 | 40.78499 | 5.42613 | 38222 ft | 483 kts | 102° |
| 2026-05-07 20:26 | 40.78067 | 5.47007 | 38354 ft | 483 kts | 102° |
| 2026-05-07 20:27 | 40.77632 | 5.51411 | 38483 ft | 483 kts | 102° |
| 2026-05-07 20:27 | 40.77201 | 5.55759 | 38597 ft | 484 kts | 102° |
| 2026-05-07 20:27 | 40.76764 | 5.60149 | 38693 ft | 484 kts | 102° |
| 2026-05-07 20:28 | 40.75881 | 5.68975 | 38879 ft | 485 kts | 102° |
| 2026-05-07 20:28 | 40.74994 | 5.77763 | 38975 ft | 487 kts | 102° |
| 2026-05-07 20:29 | 40.74088 | 5.86671 | 38979 ft | 490 kts | 102° |
| 2026-05-07 20:29 | 40.73352 | 5.95621 | 38971 ft | 500 kts | 94° |
| 2026-05-07 20:30 | 40.73937 | 6.04845 | 38972 ft | 509 kts | 85° |
| 2026-05-07 20:30 | 40.74945 | 6.14145 | 38967 ft | 514 kts | 84° |
| 2026-05-07 20:31 | 40.76034 | 6.23460 | 38968 ft | 514 kts | 84° |
| 2026-05-07 20:31 | 40.77092 | 6.32710 | 38967 ft | 514 kts | 84° |
| 2026-05-07 20:32 | 40.78131 | 6.42060 | 38966 ft | 514 kts | 85° |
| 2026-05-07 20:32 | 40.79152 | 6.51407 | 38967 ft | 515 kts | 85° |
| 2026-05-07 20:33 | 40.80159 | 6.60697 | 38964 ft | 515 kts | 85° |
| 2026-05-07 20:33 | 40.81167 | 6.70071 | 38962 ft | 516 kts | 85° |
| 2026-05-07 20:34 | 40.82170 | 6.79449 | 38960 ft | 516 kts | 85° |
| 2026-05-07 20:34 | 40.83165 | 6.88839 | 38961 ft | 517 kts | 85° |
| 2026-05-07 20:35 | 40.84147 | 6.98175 | 38960 ft | 517 kts | 85° |
| 2026-05-07 20:35 | 40.85128 | 7.07573 | 38962 ft | 518 kts | 85° |
| 2026-05-07 20:36 | 40.86106 | 7.17021 | 38958 ft | 519 kts | 85° |
| 2026-05-07 20:36 | 40.87074 | 7.26457 | 38959 ft | 519 kts | 85° |
| 2026-05-07 20:37 | 40.88037 | 7.35919 | 38957 ft | 520 kts | 85° |
| 2026-05-07 20:37 | 40.88989 | 7.45348 | 38954 ft | 521 kts | 85° |
| 2026-05-07 20:38 | 40.89940 | 7.54848 | 38953 ft | 522 kts | 85° |
| 2026-05-07 20:38 | 40.90887 | 7.64386 | 38951 ft | 523 kts | 86° |
| 2026-05-07 20:39 | 40.91820 | 7.73863 | 38949 ft | 524 kts | 86° |
| 2026-05-07 20:39 | 40.92750 | 7.83396 | 38953 ft | 524 kts | 86° |
| 2026-05-07 20:40 | 40.93675 | 7.92956 | 38950 ft | 524 kts | 86° |
| 2026-05-07 20:40 | 40.94592 | 8.02524 | 38952 ft | 524 kts | 86° |
| 2026-05-07 20:41 | 40.95495 | 8.12034 | 38952 ft | 525 kts | 86° |
| 2026-05-07 20:41 | 40.96396 | 8.21602 | 38945 ft | 525 kts | 86° |
| 2026-05-07 20:42 | 40.97290 | 8.31178 | 38943 ft | 524 kts | 86° |
| 2026-05-07 20:42 | 40.98175 | 8.40751 | 38946 ft | 524 kts | 86° |
| 2026-05-07 20:43 | 40.99053 | 8.50330 | 38947 ft | 524 kts | 86° |
| 2026-05-07 20:43 | 40.99918 | 8.59865 | 38948 ft | 525 kts | 86° |
| 2026-05-07 20:44 | 41.00780 | 8.69456 | 38944 ft | 525 kts | 86° |
| 2026-05-07 20:44 | 41.01635 | 8.79064 | 38942 ft | 525 kts | 86° |
| 2026-05-07 20:45 | 41.02484 | 8.88684 | 38944 ft | 526 kts | 86° |
| 2026-05-07 20:45 | 41.03318 | 8.98229 | 38944 ft | 526 kts | 86° |
| 2026-05-07 20:46 | 41.04151 | 9.07868 | 38955 ft | 527 kts | 86° |
| 2026-05-07 20:46 | 41.04978 | 9.17517 | 38966 ft | 527 kts | 86° |
| 2026-05-07 20:47 | 41.05796 | 9.27162 | 38971 ft | 528 kts | 86° |
| 2026-05-07 20:47 | 41.06608 | 9.36837 | 38973 ft | 528 kts | 86° |
| 2026-05-07 20:48 | 41.07412 | 9.46518 | 38983 ft | 529 kts | 86° |
| 2026-05-07 20:48 | 41.08203 | 9.56149 | 38982 ft | 529 kts | 86° |
| 2026-05-07 20:49 | 41.08992 | 9.65845 | 38974 ft | 529 kts | 86° |
| 2026-05-07 20:49 | 41.09901 | 9.75521 | 38968 ft | 532 kts | 79° |
| 2026-05-07 20:50 | 41.12146 | 9.84809 | 38967 ft | 533 kts | 70° |
| 2026-05-07 20:50 | 41.14802 | 9.93982 | 38964 ft | 533 kts | 69° |
| 2026-05-07 20:51 | 41.17537 | 10.03128 | 38965 ft | 533 kts | 69° |
| 2026-05-07 20:51 | 41.20258 | 10.12205 | 38960 ft | 522 kts | 69° |
| 2026-05-07 20:52 | 41.22891 | 10.21057 | 38964 ft | 516 kts | 69° |
| 2026-05-07 20:52 | 41.25509 | 10.29919 | 38962 ft | 516 kts | 69° |
| 2026-05-07 20:53 | 41.28122 | 10.38807 | 38746 ft | 516 kts | 69° |
| 2026-05-07 20:53 | 41.29418 | 10.43226 | 38566 ft | 510 kts | 69° |
| 2026-05-07 20:53 | 41.30697 | 10.47595 | 38150 ft | 506 kts | 69° |
| 2026-05-07 20:53 | 41.31985 | 10.52001 | 37062 ft | 516 kts | 69° |
| 2026-05-07 20:54 | 41.33292 | 10.56480 | 36126 ft | 523 kts | 69° |
| 2026-05-07 20:54 | 41.34599 | 10.60966 | 35214 ft | 529 kts | 69° |
| 2026-05-07 20:54 | 41.35924 | 10.65523 | 34743 ft | 524 kts | 69° |
| 2026-05-07 20:54 | 41.37219 | 10.69983 | 34242 ft | 511 kts | 69° |
| 2026-05-07 20:55 | 41.38499 | 10.74396 | 33303 ft | 508 kts | 69° |
| 2026-05-07 20:55 | 41.39765 | 10.78772 | 32291 ft | 505 kts | 69° |
| 2026-05-07 20:55 | 41.41022 | 10.83122 | 31270 ft | 502 kts | 69° |
| 2026-05-07 20:55 | 41.42269 | 10.87444 | 30237 ft | 500 kts | 70° |
| 2026-05-07 20:56 | 41.43498 | 10.91713 | 29004 ft | 498 kts | 70° |
| 2026-05-07 20:56 | 41.44732 | 10.96009 | 27650 ft | 497 kts | 70° |
| 2026-05-07 20:56 | 41.45965 | 11.00307 | 26602 ft | 492 kts | 70° |
| 2026-05-07 20:56 | 41.47166 | 11.04499 | 25812 ft | 481 kts | 70° |
| 2026-05-07 20:57 | 41.48343 | 11.08631 | 25057 ft | 469 kts | 70° |
| 2026-05-07 20:57 | 41.49480 | 11.12663 | 24315 ft | 459 kts | 71° |
| 2026-05-07 20:57 | 41.50596 | 11.16634 | 23592 ft | 457 kts | 71° |
| 2026-05-07 20:57 | 41.51712 | 11.20612 | 22733 ft | 458 kts | 71° |
| 2026-05-07 20:58 | 41.52811 | 11.24531 | 21965 ft | 456 kts | 70° |
| 2026-05-07 20:58 | 41.53917 | 11.28480 | 21359 ft | 450 kts | 70° |
| 2026-05-07 20:58 | 41.54990 | 11.32316 | 21206 ft | 433 kts | 71° |
| 2026-05-07 20:58 | 41.56022 | 11.36006 | 21057 ft | 417 kts | 70° |
| 2026-05-07 20:59 | 41.57022 | 11.39591 | 20885 ft | 404 kts | 71° |
| 2026-05-07 20:59 | 41.57988 | 11.43042 | 20652 ft | 393 kts | 70° |
| 2026-05-07 20:59 | 41.58943 | 11.46430 | 20217 ft | 388 kts | 70° |
| 2026-05-07 20:59 | 41.59894 | 11.49798 | 19700 ft | 386 kts | 70° |
| 2026-05-07 21:00 | 41.60842 | 11.53159 | 18941 ft | 391 kts | 70° |
| 2026-05-07 21:00 | 41.61800 | 11.56562 | 18001 ft | 400 kts | 70° |
| 2026-05-07 21:00 | 41.62790 | 11.60084 | 16985 ft | 407 kts | 70° |
| 2026-05-07 21:00 | 41.63767 | 11.63559 | 16482 ft | 392 kts | 70° |
| 2026-05-07 21:01 | 41.64704 | 11.66894 | 16133 ft | 372 kts | 70° |
| 2026-05-07 21:01 | 41.65597 | 11.70077 | 15824 ft | 361 kts | 70° |
| 2026-05-07 21:01 | 41.66471 | 11.73200 | 15428 ft | 356 kts | 71° |
| 2026-05-07 21:01 | 41.67336 | 11.76300 | 14697 ft | 360 kts | 71° |
| 2026-05-07 21:02 | 41.68222 | 11.79479 | 13794 ft | 370 kts | 70° |
| 2026-05-07 21:02 | 41.69121 | 11.82702 | 13334 ft | 364 kts | 70° |
| 2026-05-07 21:02 | 41.69910 | 11.85534 | 13106 ft | 353 kts | 71° |
| 2026-05-07 21:02 | 41.70752 | 11.88562 | 12891 ft | 340 kts | 71° |
| 2026-05-07 21:03 | 41.71559 | 11.91472 | 12684 ft | 328 kts | 71° |
| 2026-05-07 21:03 | 41.72336 | 11.94278 | 12512 ft | 317 kts | 71° |
| 2026-05-07 21:03 | 41.73090 | 11.97002 | 12368 ft | 305 kts | 70° |
| 2026-05-07 21:03 | 41.74021 | 11.99487 | 12164 ft | 296 kts | 53° |
| 2026-05-07 21:04 | 41.75552 | 12.01245 | 11918 ft | 290 kts | 25° |
| 2026-05-07 21:04 | 41.77474 | 12.01850 | 11660 ft | 282 kts | 357° |
| 2026-05-07 21:04 | 41.79396 | 12.01400 | 11420 ft | 280 kts | 343° |
| 2026-05-07 21:04 | 41.81234 | 12.00644 | 11165 ft | 282 kts | 341° |
| 2026-05-07 21:05 | 41.83115 | 11.99816 | 10692 ft | 286 kts | 341° |
| 2026-05-07 21:05 | 41.85012 | 11.98985 | 10223 ft | 288 kts | 341° |
| 2026-05-07 21:05 | 41.86914 | 11.98163 | 9713 ft | 285 kts | 341° |
| 2026-05-07 21:05 | 41.88788 | 11.97360 | 9193 ft | 281 kts | 341° |
| 2026-05-07 21:06 | 41.90627 | 11.96576 | 8692 ft | 277 kts | 341° |
| 2026-05-07 21:06 | 41.92462 | 11.95796 | 8186 ft | 276 kts | 342° |
| 2026-05-07 21:06 | 41.94301 | 11.95013 | 7695 ft | 279 kts | 342° |
| 2026-05-07 21:06 | 41.96174 | 11.94218 | 7116 ft | 285 kts | 342° |
| 2026-05-07 21:07 | 41.98056 | 11.93418 | 6517 ft | 289 kts | 342° |
| 2026-05-07 21:07 | 41.99965 | 11.92607 | 5871 ft | 286 kts | 342° |
| 2026-05-07 21:07 | 42.01861 | 11.91800 | 5239 ft | 283 kts | 343° |
| 2026-05-07 21:07 | 42.03724 | 11.91008 | 4617 ft | 280 kts | 343° |
| 2026-05-07 21:08 | 42.05583 | 11.90417 | 4156 ft | 269 kts | 355° |
| 2026-05-07 21:08 | 42.07381 | 11.90505 | 3997 ft | 250 kts | 13° |
| 2026-05-07 21:08 | 42.08953 | 11.91332 | 3871 ft | 238 kts | 33° |
| 2026-05-07 21:08 | 42.10123 | 11.92811 | 3719 ft | 230 kts | 56° |
| 2026-05-07 21:09 | 42.10766 | 11.94727 | 3605 ft | 227 kts | 77° |
| 2026-05-07 21:09 | 42.10801 | 11.96835 | 3482 ft | 228 kts | 102° |
| 2026-05-07 21:09 | 42.10202 | 11.98816 | 3376 ft | 229 kts | 116° |
| 2026-05-07 21:09 | 42.09418 | 12.00672 | 3300 ft | 229 kts | 118° |
| 2026-05-07 21:10 | 42.08604 | 12.02528 | 3215 ft | 229 kts | 118° |
| 2026-05-07 21:10 | 42.07804 | 12.04372 | 3093 ft | 230 kts | 118° |
| 2026-05-07 21:10 | 42.07003 | 12.06237 | 3044 ft | 229 kts | 118° |
| 2026-05-07 21:10 | 42.06209 | 12.08100 | 3050 ft | 230 kts | 117° |
| 2026-05-07 21:11 | 42.05412 | 12.09975 | 3064 ft | 231 kts | 117° |
| 2026-05-07 21:11 | 42.04619 | 12.11845 | 3063 ft | 230 kts | 117° |
| 2026-05-07 21:11 | 42.03053 | 12.15545 | 2645 ft | 224 kts | 116° |
| 2026-05-07 21:12 | 42.02292 | 12.17324 | 2578 ft | 218 kts | 119° |
| 2026-05-07 21:12 | 42.01233 | 12.18780 | 2571 ft | 218 kts | 141° |
| 2026-05-07 21:12 | 41.99910 | 12.19718 | 2581 ft | 215 kts | 157° |
| 2026-05-07 21:12 | 41.98517 | 12.20297 | 2560 ft | 202 kts | 161° |
| 2026-05-07 21:13 | 41.97213 | 12.20826 | 2571 ft | 195 kts | 160° |
| 2026-05-07 21:13 | 41.95910 | 12.21377 | 2529 ft | 192 kts | 160° |
| 2026-05-07 21:13 | 41.94681 | 12.21909 | 2321 ft | 185 kts | 159° |
| 2026-05-07 21:13 | 41.93477 | 12.22421 | 2043 ft | 178 kts | 160° |
| 2026-05-07 21:14 | 41.92327 | 12.22902 | 1798 ft | 168 kts | 160° |
| 2026-05-07 21:14 | 41.91260 | 12.23350 | 1583 ft | 153 kts | 160° |
| 2026-05-07 21:14 | 41.90274 | 12.23765 | 1379 ft | 146 kts | 161° |
| 2026-05-07 21:14 | 41.89305 | 12.24172 | 1096 ft | 147 kts | 161° |
| 2026-05-07 21:15 | 41.88323 | 12.24582 | 823 ft | 149 kts | 162° |
| 2026-05-07 21:15 | 41.87327 | 12.25027 | 589 ft | 152 kts | 160° |
| 2026-05-07 21:15 | 41.86343 | 12.25434 | 381 ft | 146 kts | 162° |
| 2026-05-07 21:15 | 41.85385 | 12.25814 | 193 ft | 145 kts | 163° |
| 2026-05-07 21:16 | 41.84425 | 12.26223 | 65 ft | 145 kts | 163° |
| 2026-05-07 21:16 | 41.83493 | 12.26602 | 28 ft | 130 kts | 161° |
| 2026-05-07 21:16 | 41.82738 | 12.26929 | 18 ft | 90 kts | 163° |
| 2026-05-07 21:16 | 41.82302 | 12.27111 | 12 ft | 48 kts | 163° |
| 2026-05-07 21:17 | 41.82029 | 12.27129 | 15 ft | 36 kts | 193° |
| 2026-05-07 21:17 | 41.81824 | 12.27068 | 14 ft | 26 kts | 192° |
| 2026-05-07 21:17 | 41.81657 | 12.27062 | 16 ft | 23 kts | 172° |
| 2026-05-07 21:17 | 41.81550 | 12.27102 | 15 ft | 0 kts | 162° |